De Smet, South Dakota
Current Conditions -  °F | °C
As of 4:55 AM on Saturday 20 Dec 2014 (Local Time) from KHON Reporting Station
Moderate Fog Moderate Fog  
Wind Chill: 18°   Ceiling: 200
Heat Index: 26°   Visibility: 0.5mi
Dew Point: 25°   Wind: 7mph
Humidity: 96%   Direction: 180°S
Pressure: 30.02"   Gusts: NA
Location:  44.39°N, 97.55°W
Report Text: KHON 201055Z AUTO 18006KT 1/2SM FZFG VV002 M03/M04 A3002 RMK AO2 SLP182 I1001 T10331039
Loading
Personal Weather Stations






























Interactive Weather Map New forecast layout! Learn more

10-Day Weather Forecast

Advertisements
Track Severe Weather on mobile